Time;durP1;ratioP1;P1;durP2;ratioP2;P2;SDS_P1;SDS_P2;PMS_P1;PMS_P2;Temp;Humidity;BMP_temperature;BMP_pressure;BME280_temperature;BME280_humidity;BME280_pressure;Samples;Min_cycle;Max_cycle;Signal;HPM_P1;HPM_P2
2023/01/02 00:02:16;;;;;;;7.60;5.97;;;10.70;99.90;;;;;;5083134;28;20073;-76
2023/01/02 00:04:42;;;;;;;10.10;7.68;;;10.60;99.90;;;;;;5059308;28;20037;-77
2023/01/02 00:07:08;;;;;;;10.13;6.70;;;10.60;99.90;;;;;;5099291;28;20056;-76
2023/01/02 00:09:33;;;;;;;10.40;6.13;;;10.60;99.90;;;;;;5065003;28;20052;-76
2023/01/02 00:11:59;;;;;;;8.45;6.20;;;10.60;99.90;;;;;;5079164;28;20045;-76
2023/01/02 00:14:25;;;;;;;8.75;6.55;;;10.60;99.90;;;;;;5078156;28;20044;-76
2023/01/02 00:16:50;;;;;;;10.80;6.97;;;10.70;99.90;;;;;;5083995;28;20033;-76
2023/01/02 00:19:16;;;;;;;8.10;6.10;;;10.60;99.90;;;;;;5064504;28;20058;-77
2023/01/02 00:21:42;;;;;;;11.07;6.20;;;10.60;99.90;;;;;;5091922;28;20489;-76
2023/01/02 00:24:08;;;;;;;11.48;5.70;;;10.70;99.90;;;;;;5063654;28;20097;-75
2023/01/02 00:26:33;;;;;;;9.85;6.88;;;10.70;99.90;;;;;;5087355;28;20045;-75
2023/01/02 00:29:00;;;;;;;11.98;6.70;;;10.70;99.90;;;;;;5089396;28;20048;-73
2023/01/02 00:31:26;;;;;;;12.23;6.60;;;10.70;99.90;;;;;;5068790;28;20055;-73
2023/01/02 00:33:52;;;;;;;10.73;6.55;;;10.70;99.90;;;;;;5079035;28;20028;-74
2023/01/02 00:36:17;;;;;;;9.20;6.05;;;10.70;99.90;;;;;;5083350;28;20040;-74
2023/01/02 00:38:43;;;;;;;11.30;6.60;;;10.80;99.90;;;;;;5092956;28;20037;-73
2023/01/02 00:41:09;;;;;;;9.85;6.88;;;10.80;99.90;;;;;;5082562;28;20872;-75
2023/01/02 00:43:35;;;;;;;9.52;6.38;;;10.80;99.90;;;;;;5083941;28;20143;-73
2023/01/02 00:46:01;;;;;;;10.18;6.38;;;10.80;99.90;;;;;;5079420;28;20075;-72
2023/01/02 00:48:27;;;;;;;12.70;6.78;;;10.80;99.90;;;;;;5059969;28;20051;-73
2023/01/02 00:50:53;;;;;;;9.23;6.75;;;10.80;99.90;;;;;;5092286;28;20122;-74
2023/01/02 00:53:19;;;;;;;9.93;7.22;;;10.90;99.90;;;;;;5095275;28;20040;-73
2023/01/02 00:55:45;;;;;;;9.23;6.10;;;10.90;99.90;;;;;;5090595;28;20032;-73
2023/01/02 00:58:11;;;;;;;10.90;7.05;;;10.90;99.90;;;;;;5090498;28;20045;-73
2023/01/02 01:00:37;;;;;;;10.65;7.18;;;10.90;99.90;;;;;;5089397;28;20040;-73
2023/01/02 01:03:03;;;;;;;10.43;6.32;;;11.00;99.90;;;;;;5083826;28;20060;-74
2023/01/02 01:05:29;;;;;;;11.32;7.07;;;11.00;99.90;;;;;;5078996;28;20048;-74
2023/01/02 01:07:55;;;;;;;9.52;6.78;;;10.90;99.90;;;;;;5079649;28;20056;-74
2023/01/02 01:10:23;;;;;;;8.27;6.45;;;10.90;99.90;;;;;;5088484;28;20052;-73
2023/01/02 01:12:48;;;;;;;10.93;6.97;;;11.00;99.90;;;;;;5080510;28;20049;-73
2023/01/02 01:15:14;;;;;;;8.52;5.93;;;11.00;99.90;;;;;;5075664;28;20044;-73
2023/01/02 01:17:40;;;;;;;9.95;6.90;;;11.00;99.90;;;;;;5078832;28;20037;-73
2023/01/02 01:20:06;;;;;;;11.98;7.15;;;11.10;99.90;;;;;;5087554;28;20107;-73
2023/01/02 01:22:32;;;;;;;11.43;6.63;;;11.10;99.90;;;;;;5092449;28;20052;-74
2023/01/02 01:24:58;;;;;;;9.90;6.68;;;11.10;99.90;;;;;;5063713;28;20083;-73
2023/01/02 01:27:24;;;;;;;11.57;6.55;;;11.20;99.90;;;;;;5088821;28;20047;-73
2023/01/02 01:29:50;;;;;;;9.48;6.95;;;11.20;99.90;;;;;;5085138;28;20040;-73
2023/01/02 01:32:15;;;;;;;9.30;6.30;;;11.20;99.90;;;;;;5075554;28;20036;-73
2023/01/02 01:34:42;;;;;;;10.85;6.70;;;11.20;99.90;;;;;;5063399;28;20154;-73
2023/01/02 01:37:08;;;;;;;9.65;6.15;;;11.20;99.90;;;;;;5071561;28;20040;-73
2023/01/02 01:39:33;;;;;;;9.25;6.00;;;11.20;99.90;;;;;;5060151;28;20782;-74
2023/01/02 01:42:00;;;;;;;9.45;6.18;;;11.20;99.90;;;;;;5083395;28;20159;-74
2023/01/02 01:44:51;;;;;;;9.73;5.22;;;11.30;99.90;;;;;;5092224;28;20069;-75
2023/01/02 01:47:26;;;;;;;8.73;5.38;;;11.30;99.90;;;;;;5079154;28;20045;-74
2023/01/02 01:50:04;;;;;;;9.40;4.82;;;11.20;99.90;;;;;;5076215;28;20052;-72
2023/01/02 01:52:33;;;;;;;8.23;5.90;;;11.30;99.90;;;;;;5065851;28;20117;-75
2023/01/02 01:55:15;;;;;;;9.73;5.57;;;11.30;99.90;;;;;;5085571;28;20096;-73
2023/01/02 01:57:52;;;;;;;7.88;5.07;;;11.30;99.90;;;;;;5075462;28;20052;-75
2023/01/02 02:00:18;;;;;;;12.43;5.45;;;11.30;99.90;;;;;;5061384;28;20040;-73
2023/01/02 02:02:48;;;;;;;8.40;4.85;;;11.40;99.90;;;;;;5059613;28;20041;-73
2023/01/02 02:05:18;;;;;;;10.63;5.60;;;11.40;99.90;;;;;;5077104;28;20056;-73
2023/01/02 02:08:01;;;;;;;7.50;5.00;;;11.40;99.90;;;;;;5062631;28;20104;-71
2023/01/02 02:10:26;;;;;;;9.00;5.22;;;11.40;99.90;;;;;;5079846;28;20085;-75
2023/01/02 02:12:52;;;;;;;7.53;4.47;;;11.40;99.90;;;;;;5081650;28;20135;-73
2023/01/02 02:15:23;;;;;;;7.45;4.57;;;11.30;99.90;;;;;;5078251;28;20040;-74
2023/01/02 02:18:15;;;;;;;6.95;4.70;;;11.30;99.90;;;;;;5079973;28;20130;-74
2023/01/02 02:20:56;;;;;;;10.15;4.82;;;11.40;99.90;;;;;;5074372;28;20056;-74
2023/01/02 02:23:44;;;;;;;7.22;4.85;;;11.40;99.90;;;;;;5058926;28;20057;-74
2023/01/02 02:26:48;;;;;;;8.30;4.63;;;11.30;99.90;;;;;;5061162;28;20052;-72
2023/01/02 02:29:52;;;;;;;7.20;4.10;;;11.40;99.90;;;;;;5081483;28;20064;-74
2023/01/02 02:32:38;;;;;;;7.82;4.35;;;11.50;99.90;;;;;;5069922;28;20056;-73
2023/01/02 02:35:04;;;;;;;8.65;4.20;;;11.50;99.90;;;;;;5064743;28;20082;-74
2023/01/02 02:37:39;;;;;;;9.65;4.35;;;11.50;99.90;;;;;;5080923;28;20044;-72
2023/01/02 02:40:10;;;;;;;9.35;4.68;;;11.50;99.90;;;;;;5080895;28;20048;-73
2023/01/02 02:42:39;;;;;;;6.60;3.83;;;11.60;99.90;;;;;;5082050;28;20109;-73
2023/01/02 02:45:11;;;;;;;8.45;4.22;;;11.60;99.90;;;;;;5078621;28;20131;-74
2023/01/02 02:48:25;;;;;;;6.95;4.30;;;11.60;99.90;;;;;;5081227;28;20464;-75
2023/01/02 02:51:05;;;;;;;6.22;3.95;;;11.60;99.90;;;;;;5054645;28;20049;-74
2023/01/02 02:53:39;;;;;;;8.00;3.95;;;11.60;99.90;;;;;;5082478;28;20171;-73
2023/01/02 02:56:08;;;;;;;6.63;3.88;;;11.60;99.90;;;;;;5084985;28;20049;-74
2023/01/02 02:58:36;;;;;;;7.15;3.85;;;11.70;99.90;;;;;;5084170;28;20151;-72
2023/01/02 03:01:07;;;;;;;5.18;3.38;;;11.70;99.90;;;;;;5068606;28;20072;-77
2023/01/02 03:03:33;;;;;;;5.38;3.45;;;11.70;99.90;;;;;;5085675;28;20044;-73
2023/01/02 03:06:44;;;;;;;7.78;4.25;;;11.60;99.90;;;;;;5063727;28;20086;-76
2023/01/02 03:09:39;;;;;;;7.95;4.70;;;11.70;99.90;;;;;;5079482;28;20102;-75
2023/01/02 03:12:39;;;;;;;7.00;4.20;;;11.60;99.90;;;;;;5064349;28;20049;-74
2023/01/02 03:15:20;;;;;;;9.10;4.30;;;11.60;99.90;;;;;;5079463;28;20044;-72
2023/01/02 03:17:54;;;;;;;9.75;4.30;;;11.60;99.90;;;;;;5060545;28;20045;-72
2023/01/02 03:20:24;;;;;;;5.93;4.45;;;11.50;99.90;;;;;;5060429;28;20052;-73
2023/01/02 03:22:54;;;;;;;9.05;4.45;;;11.50;99.90;;;;;;5042470;28;20072;-74
2023/01/02 03:25:21;;;;;;;7.97;3.92;;;11.50;99.90;;;;;;5060853;28;20119;-73
2023/01/02 03:27:49;;;;;;;5.75;4.10;;;11.50;99.90;;;;;;5057876;28;20116;-73
2023/01/02 03:30:20;;;;;;;6.63;4.25;;;11.50;99.90;;;;;;5060949;28;20059;-73
2023/01/02 03:32:57;;;;;;;8.70;4.50;;;11.50;99.90;;;;;;5042488;28;20063;-73
2023/01/02 03:35:42;;;;;;;10.07;4.20;;;11.50;99.90;;;;;;5059523;28;20060;-74
2023/01/02 03:38:19;;;;;;;7.43;4.28;;;11.50;99.90;;;;;;5044194;28;20045;-72
2023/01/02 03:40:53;;;;;;;7.53;3.85;;;11.50;99.90;;;;;;5057505;28;20063;-74
2023/01/02 03:43:28;;;;;;;6.97;4.40;;;11.50;99.90;;;;;;5060196;28;20082;-73
2023/01/02 03:46:03;;;;;;;8.13;4.63;;;11.50;99.90;;;;;;5059684;28;20053;-74
2023/01/02 03:48:55;;;;;;;8.35;4.60;;;11.50;99.90;;;;;;5058506;28;20049;-75
2023/01/02 03:51:21;;;;;;;12.13;4.60;;;11.40;99.90;;;;;;5052673;28;20049;-74
2023/01/02 03:53:48;;;;;;;8.18;3.92;;;11.40;99.90;;;;;;5077884;28;20056;-72
2023/01/02 03:56:33;;;;;;;7.90;5.00;;;11.50;99.90;;;;;;5080245;28;20060;-75
2023/01/02 03:59:16;;;;;;;8.15;4.65;;;11.50;99.90;;;;;;5079750;28;20057;-80
2023/01/02 04:02:02;;;;;;;9.68;4.07;;;11.50;99.90;;;;;;5077802;28;20048;-75
2023/01/02 04:04:42;;;;;;;7.22;4.10;;;11.50;99.90;;;;;;5081509;28;20881;-76
2023/01/02 04:07:13;;;;;;;10.80;4.07;;;11.50;99.90;;;;;;5078836;28;20047;-73
2023/01/02 04:09:41;;;;;;;9.20;4.70;;;11.50;99.90;;;;;;5078686;28;20541;-74
2023/01/02 04:12:11;;;;;;;8.45;4.00;;;11.50;99.90;;;;;;5079702;28;20570;-73
2023/01/02 04:14:56;;;;;;;5.97;4.10;;;11.50;99.90;;;;;;5077120;28;20594;-73
2023/01/02 04:17:25;;;;;;;8.80;4.18;;;11.60;99.90;;;;;;5080037;28;20106;-73
2023/01/02 04:20:06;;;;;;;6.50;4.47;;;11.60;99.90;;;;;;5079361;28;20041;-74
2023/01/02 04:22:38;;;;;;;11.57;6.38;;;11.60;99.90;;;;;;5078267;28;20044;-74
2023/01/02 04:25:14;;;;;;;8.63;5.70;;;11.60;99.90;;;;;;5080950;28;20099;-73
2023/01/02 04:27:59;;;;;;;11.05;6.20;;;11.60;99.90;;;;;;5077135;28;20053;-75
2023/01/02 04:30:28;;;;;;;10.43;5.45;;;11.60;99.90;;;;;;5079482;28;20048;-73
2023/01/02 04:32:58;;;;;;;8.50;5.53;;;11.60;99.90;;;;;;5078272;28;20049;-73
2023/01/02 04:35:24;;;;;;;9.25;5.30;;;11.60;99.90;;;;;;5078021;28;20056;-72
2023/01/02 04:37:49;;;;;;;9.10;4.50;;;11.60;99.90;;;;;;5079835;28;20057;-74
2023/01/02 04:40:44;;;;;;;7.65;4.93;;;11.60;99.90;;;;;;5076796;28;20447;-73
2023/01/02 04:43:18;;;;;;;7.38;4.05;;;11.70;99.90;;;;;;5075974;28;20083;-74
2023/01/02 04:45:49;;;;;;;9.02;3.97;;;11.70;99.90;;;;;;5077761;28;20059;-76
2023/01/02 04:48:15;;;;;;;7.28;4.75;;;11.70;99.90;;;;;;5077416;28;20052;-77
2023/01/02 04:50:41;;;;;;;6.95;4.03;;;11.80;99.90;;;;;;5079079;28;20047;-75
2023/01/02 04:53:09;;;;;;;7.93;4.38;;;11.80;99.90;;;;;;5077004;28;20048;-74
2023/01/02 04:55:35;;;;;;;6.65;3.92;;;11.80;99.90;;;;;;5079233;28;20048;-73
2023/01/02 04:58:01;;;;;;;6.00;4.10;;;11.80;99.90;;;;;;5060004;28;20040;-75
2023/01/02 05:00:27;;;;;;;10.52;4.30;;;11.80;99.90;;;;;;5062169;28;20040;-72
2023/01/02 05:02:52;;;;;;;8.18;3.72;;;11.90;99.90;;;;;;5079175;28;20094;-74
2023/01/02 05:05:18;;;;;;;5.30;3.40;;;11.90;99.90;;;;;;5077482;28;20071;-74
2023/01/02 05:07:44;;;;;;;5.45;3.38;;;11.90;99.90;;;;;;5080209;28;20048;-74
2023/01/02 05:10:10;;;;;;;7.45;3.70;;;11.90;99.90;;;;;;5076171;28;20135;-74
2023/01/02 05:12:38;;;;;;;7.15;4.03;;;11.90;99.90;;;;;;5078583;28;20044;-75
2023/01/02 05:15:05;;;;;;;6.68;4.03;;;11.90;99.90;;;;;;5075692;28;20064;-75
2023/01/02 05:17:40;;;;;;;6.75;3.53;;;11.90;99.90;;;;;;5078447;28;20488;-75
2023/01/02 05:20:09;;;;;;;8.20;3.78;;;11.90;99.90;;;;;;5077721;28;20056;-72
2023/01/02 05:25:22;;;;;;;5.07;3.58;;;11.90;99.90;;;;;;5078643;28;20056;-75
2023/01/02 05:27:54;;;;;;;9.15;3.58;;;11.90;99.90;;;;;;5075960;28;20044;-72
2023/01/02 05:30:20;;;;;;;6.93;4.15;;;11.90;99.90;;;;;;5078358;28;20048;-74
2023/01/02 05:32:46;;;;;;;7.88;3.67;;;11.90;99.90;;;;;;5076786;28;20071;-73
2023/01/02 05:35:12;;;;;;;7.55;4.60;;;11.90;99.90;;;;;;5078750;28;20037;-75
2023/01/02 05:37:37;;;;;;;6.25;3.83;;;11.90;99.90;;;;;;5078109;28;20048;-72
2023/01/02 05:40:04;;;;;;;7.65;4.18;;;11.90;99.90;;;;;;5077297;28;20048;-76
2023/01/02 05:42:30;;;;;;;6.68;3.53;;;11.90;99.90;;;;;;5078404;28;20059;-73
2023/01/02 05:44:55;;;;;;;5.57;3.88;;;11.80;99.90;;;;;;5075157;28;20045;-72
2023/01/02 05:47:21;;;;;;;6.43;4.07;;;11.80;99.90;;;;;;5078214;28;20470;-74
2023/01/02 05:49:47;;;;;;;8.43;4.55;;;11.80;99.90;;;;;;5076634;28;20090;-74
2023/01/02 05:52:13;;;;;;;5.65;4.43;;;11.70;99.90;;;;;;5078729;28;20602;-75
2023/01/02 05:54:38;;;;;;;7.97;4.72;;;11.80;99.90;;;;;;5077742;28;20084;-72
2023/01/02 05:57:04;;;;;;;7.60;4.75;;;11.80;99.90;;;;;;5075826;28;20041;-75
2023/01/02 05:59:30;;;;;;;8.20;4.82;;;11.80;99.90;;;;;;5078162;28;20049;-74
2023/01/02 06:01:55;;;;;;;6.97;4.32;;;11.80;99.90;;;;;;5076448;28;20045;-74
2023/01/02 06:04:21;;;;;;;6.18;3.95;;;11.80;99.90;;;;;;5079712;28;20044;-76
2023/01/02 06:06:48;;;;;;;8.68;4.47;;;11.80;99.90;;;;;;5076040;28;20101;-73
2023/01/02 06:09:15;;;;;;;6.30;4.05;;;11.80;99.90;;;;;;5077213;28;20052;-73
2023/01/02 06:11:41;;;;;;;7.13;3.83;;;11.80;99.90;;;;;;5077442;28;20065;-74
2023/01/02 06:14:09;;;;;;;8.00;3.45;;;11.80;99.90;;;;;;5075450;28;20048;-75
2023/01/02 06:16:35;;;;;;;7.25;3.90;;;11.80;99.90;;;;;;5079175;28;20071;-73
2023/01/02 06:19:01;;;;;;;7.95;4.22;;;11.90;99.90;;;;;;5058870;28;20083;-76
2023/01/02 06:21:27;;;;;;;5.47;3.70;;;11.80;99.90;;;;;;5079455;28;20066;-72
2023/01/02 06:23:55;;;;;;;8.85;3.75;;;11.80;99.90;;;;;;5060610;28;20048;-74
2023/01/02 06:26:22;;;;;;;6.30;3.92;;;11.90;99.90;;;;;;5083262;28;20040;-74
2023/01/02 06:28:53;;;;;;;7.63;4.32;;;11.80;99.90;;;;;;5048025;28;20661;-73
2023/01/02 06:31:20;;;;;;;6.80;4.07;;;11.80;99.90;;;;;;5076085;28;20040;-73
2023/01/02 06:33:46;;;;;;;6.80;3.50;;;11.80;99.90;;;;;;5078041;28;20108;-73
2023/01/02 06:36:13;;;;;;;6.72;3.92;;;11.90;99.90;;;;;;5075543;28;20072;-74
2023/01/02 06:38:39;;;;;;;5.80;3.53;;;11.90;99.90;;;;;;5079164;28;20457;-80
2023/01/02 06:41:06;;;;;;;5.35;3.35;;;11.90;99.90;;;;;;5075720;28;20053;-73
2023/01/02 06:43:32;;;;;;;7.00;3.70;;;11.90;99.90;;;;;;5078012;28;20040;-72
2023/01/02 06:46:00;;;;;;;4.43;2.83;;;12.00;99.90;;;;;;5076831;28;20063;-73
2023/01/02 06:48:26;;;;;;;5.60;3.38;;;11.90;99.90;;;;;;5058516;28;20041;-76
2023/01/02 06:50:52;;;;;;;5.47;3.80;;;11.90;99.90;;;;;;5077560;28;20075;-74
2023/01/02 06:53:18;;;;;;;6.30;4.22;;;11.90;99.90;;;;;;5058349;28;20053;-76
2023/01/02 06:55:55;;;;;;;7.10;3.90;;;11.90;99.90;;;;;;5077760;28;20052;-75
2023/01/02 06:58:22;;;;;;;5.93;3.10;;;11.90;99.90;;;;;;5056245;28;20057;-75
2023/01/02 07:00:49;;;;;;;5.50;3.53;;;11.90;99.90;;;;;;5056451;28;20045;-73
2023/01/02 07:03:15;;;;;;;5.43;3.08;;;11.80;99.90;;;;;;5056862;28;20049;-74
2023/01/02 07:05:41;;;;;;;7.22;3.75;;;11.80;99.90;;;;;;5058411;28;20396;-74
2023/01/02 07:08:08;;;;;;;5.57;3.78;;;11.90;99.90;;;;;;5061720;28;20045;-76
2023/01/02 07:10:34;;;;;;;6.43;4.03;;;11.80;99.90;;;;;;5041918;28;20061;-77
2023/01/02 07:13:00;;;;;;;6.45;3.80;;;11.80;99.90;;;;;;5061644;28;20053;-76
2023/01/02 07:15:25;;;;;;;5.60;3.75;;;11.80;99.90;;;;;;5080237;28;20048;-76
2023/01/02 07:17:51;;;;;;;5.07;3.63;;;11.80;99.90;;;;;;5064492;28;20065;-73
2023/01/02 07:20:17;;;;;;;6.85;4.15;;;11.80;99.90;;;;;;5083889;28;20048;-74
2023/01/02 07:22:49;;;;;;;6.35;3.97;;;11.80;99.90;;;;;;5080040;28;20301;-73
2023/01/02 07:25:14;;;;;;;5.25;3.80;;;11.70;99.90;;;;;;5064332;28;20052;-72
2023/01/02 07:27:40;;;;;;;5.75;4.45;;;11.70;99.90;;;;;;5077799;28;20076;-73
2023/01/02 07:30:06;;;;;;;6.97;4.60;;;11.70;99.90;;;;;;5063892;28;20142;-73
2023/01/02 07:32:32;;;;;;;6.53;3.92;;;11.70;99.90;;;;;;5078254;28;20040;-83
2023/01/02 07:34:58;;;;;;;5.78;3.78;;;11.70;99.90;;;;;;5080767;28;20087;-85
2023/01/02 07:37:23;;;;;;;6.28;2.97;;;11.60;99.90;;;;;;5079458;28;20048;-80
2023/01/02 07:39:49;;;;;;;4.10;2.50;;;11.60;99.90;;;;;;5061172;28;20040;-79
2023/01/02 07:42:15;;;;;;;5.45;2.78;;;11.50;99.90;;;;;;5063631;28;20049;-75
2023/01/02 07:44:40;;;;;;;3.63;2.00;;;11.40;99.90;;;;;;5077386;28;20048;-76
2023/01/02 07:47:06;;;;;;;3.65;2.15;;;11.40;99.90;;;;;;5063844;28;20052;-77
2023/01/02 07:49:32;;;;;;;3.00;1.70;;;11.30;99.90;;;;;;5077987;28;20524;-81
2023/01/02 07:51:57;;;;;;;6.47;1.55;;;11.10;99.90;;;;;;5063094;28;20076;-81
2023/01/02 07:54:23;;;;;;;2.40;1.20;;;11.00;99.90;;;;;;5062896;28;20063;-78
2023/01/02 07:56:49;;;;;;;2.60;1.40;;;10.80;99.90;;;;;;5061480;28;20527;-78
2023/01/02 07:59:14;;;;;;;3.47;1.40;;;10.80;99.90;;;;;;5080040;28;20032;-80
2023/01/02 08:01:40;;;;;;;1.98;1.40;;;10.70;99.90;;;;;;5077641;28;20044;-77
2023/01/02 08:04:06;;;;;;;2.38;1.38;;;10.60;99.90;;;;;;5079910;28;20045;-81
2023/01/02 08:06:33;;;;;;;2.70;1.25;;;10.60;99.90;;;;;;5061294;28;20048;-86
2023/01/02 08:08:58;;;;;;;1.98;1.30;;;10.50;99.90;;;;;;5079281;28;20055;-81
2023/01/02 08:11:24;;;;;;;1.75;0.95;;;10.30;99.90;;;;;;5051720;28;20060;-76
2023/01/02 08:13:50;;;;;;;2.15;1.30;;;10.20;99.90;;;;;;5077806;28;20488;-81
2023/01/02 08:16:21;;;;;;;2.20;1.45;;;10.10;99.90;;;;;;5076817;28;20055;-85
2023/01/02 08:18:50;;;;;;;2.38;1.52;;;10.10;99.90;;;;;;5057439;28;20462;-79
2023/01/02 08:21:16;;;;;;;2.20;1.30;;;10.10;99.90;;;;;;5080306;28;20032;-79
2023/01/02 08:23:41;;;;;;;2.88;1.70;;;10.00;99.90;;;;;;5059564;28;20456;-77
2023/01/02 08:26:09;;;;;;;3.13;1.98;;;9.90;99.90;;;;;;5078349;28;20048;-85
2023/01/02 08:28:36;;;;;;;3.40;2.38;;;9.80;99.90;;;;;;5076648;28;20052;-79
2023/01/02 08:31:10;;;;;;;3.28;2.20;;;9.80;99.90;;;;;;5076396;28;20044;-80
2023/01/02 08:33:36;;;;;;;4.30;2.42;;;9.80;99.90;;;;;;5058451;28;20056;-82
2023/01/02 08:36:02;;;;;;;3.75;2.50;;;9.70;99.90;;;;;;5075755;28;20065;-85
2023/01/02 08:38:27;;;;;;;2.97;1.90;;;9.70;99.90;;;;;;5072740;28;20036;-79
2023/01/02 08:40:53;;;;;;;2.95;2.03;;;9.70;99.90;;;;;;5076417;28;20048;-77
2023/01/02 08:43:19;;;;;;;2.70;1.90;;;9.60;99.90;;;;;;5078828;28;20124;-78
2023/01/02 08:45:44;;;;;;;3.65;2.13;;;9.50;99.90;;;;;;5077155;28;20071;-79
2023/01/02 08:48:10;;;;;;;4.65;2.42;;;9.40;99.90;;;;;;5059275;28;20133;-81
2023/01/02 08:50:36;;;;;;;4.32;1.95;;;9.40;99.90;;;;;;5061346;28;20131;-78
2023/01/02 08:53:01;;;;;;;3.13;1.90;;;9.30;99.90;;;;;;5075218;28;20075;-81
2023/01/02 08:55:27;;;;;;;3.03;1.55;;;9.30;99.90;;;;;;5077798;28;20483;-84
2023/01/02 08:57:53;;;;;;;4.10;2.00;;;9.20;99.90;;;;;;5077843;28;20044;-79
2023/01/02 09:00:18;;;;;;;2.17;1.20;;;9.20;99.90;;;;;;5078408;28;20040;-78
2023/01/02 09:02:44;;;;;;;2.90;1.30;;;9.10;99.90;;;;;;5076039;28;20056;-82
2023/01/02 09:05:10;;;;;;;1.85;0.90;;;9.00;99.90;;;;;;5077057;28;20053;-84
2023/01/02 09:07:38;;;;;;;2.00;0.80;;;9.00;99.90;;;;;;5077956;28;20076;-85
2023/01/02 09:10:04;;;;;;;2.55;1.23;;;8.90;99.90;;;;;;5057577;28;20048;-80
2023/01/02 09:12:30;;;;;;;2.50;1.33;;;8.90;99.90;;;;;;5042019;28;20040;-80
2023/01/02 09:14:56;;;;;;;2.38;1.35;;;8.90;99.90;;;;;;5075462;28;20094;-80
2023/01/02 09:17:21;;;;;;;1.55;0.88;;;8.80;99.90;;;;;;5059760;28;20045;-85
2023/01/02 09:19:47;;;;;;;1.98;0.90;;;8.80;99.90;;;;;;5077965;28;20043;-82
2023/01/02 09:22:13;;;;;;;1.58;0.80;;;8.80;99.90;;;;;;5077169;28;20433;-84
2023/01/02 09:24:39;;;;;;;2.60;0.93;;;8.70;99.90;;;;;;5078877;28;20052;-81
2023/01/02 09:27:04;;;;;;;1.15;0.68;;;8.60;99.90;;;;;;5076137;28;20051;-84
2023/01/02 09:29:30;;;;;;;1.90;0.80;;;8.60;99.90;;;;;;5079636;28;20045;-80
2023/01/02 09:31:56;;;;;;;1.75;0.70;;;8.60;99.90;;;;;;5075137;28;20048;-82
2023/01/02 09:34:21;;;;;;;2.13;1.02;;;8.60;99.90;;;;;;5078000;28;20057;-79
2023/01/02 09:36:47;;;;;;;2.30;1.13;;;8.60;99.90;;;;;;5059147;28;20430;-85
2023/01/02 09:39:13;;;;;;;2.65;1.00;;;8.60;99.90;;;;;;5077338;28;20048;-80
2023/01/02 09:41:59;;;;;;;1.85;0.90;;;8.60;99.90;;;;;;5077240;28;20040;-79
2023/01/02 09:44:53;;;;;;;2.95;0.85;;;8.60;99.90;;;;;;5042029;28;20100;-84
2023/01/02 09:47:23;;;;;;;2.40;1.02;;;8.60;99.90;;;;;;5078165;28;20078;-84
2023/01/02 09:50:04;;;;;;;2.97;1.00;;;8.60;99.90;;;;;;5077057;28;20052;-81
2023/01/02 09:52:35;;;;;;;2.15;1.13;;;8.50;99.90;;;;;;5058742;28;20041;-82
2023/01/02 09:55:01;;;;;;;2.70;1.20;;;8.50;99.90;;;;;;5063075;28;20057;-85
2023/01/02 09:57:27;;;;;;;2.20;1.13;;;8.50;99.90;;;;;;5059215;28;20040;-80
2023/01/02 10:00:09;;;;;;;2.58;1.52;;;8.50;99.90;;;;;;5062238;28;20098;-83
2023/01/02 10:02:59;;;;;;;2.10;1.00;;;8.60;99.90;;;;;;5073502;28;20057;-82
2023/01/02 10:05:40;;;;;;;1.92;1.10;;;8.50;99.90;;;;;;5057582;28;20150;-82
2023/01/02 10:08:30;;;;;;;1.80;0.80;;;8.60;99.90;;;;;;5061322;28;20088;-80
2023/01/02 10:11:27;;;;;;;2.05;1.20;;;8.60;99.90;;;;;;5058609;28;20052;-84
2023/01/02 10:13:58;;;;;;;2.00;1.20;;;8.60;99.90;;;;;;5075216;28;20099;-79
2023/01/02 10:16:30;;;;;;;1.85;1.15;;;8.60;99.90;;;;;;5077590;28;20056;-80
2023/01/02 10:18:59;;;;;;;2.30;1.13;;;8.60;99.90;;;;;;5075258;28;20044;-81
2023/01/02 10:21:31;;;;;;;2.22;1.10;;;8.60;99.90;;;;;;5077655;28;20564;-82
2023/01/02 10:24:20;;;;;;;2.30;1.05;;;8.60;99.90;;;;;;5074992;28;20106;-80
2023/01/02 10:26:51;;;;;;;1.80;1.00;;;8.60;99.90;;;;;;5039240;28;20091;-77
2023/01/02 10:29:30;;;;;;;2.30;1.40;;;8.60;99.90;;;;;;5057203;28;20045;-80
2023/01/02 10:32:01;;;;;;;2.67;1.08;;;8.60;99.90;;;;;;5066170;28;20056;-80
2023/01/02 10:34:40;;;;;;;2.20;1.20;;;8.70;99.90;;;;;;5077137;28;20080;-79
2023/01/02 10:37:14;;;;;;;2.10;1.17;;;8.70;99.90;;;;;;5076709;28;20044;-78
2023/01/02 10:39:46;;;;;;;2.00;1.20;;;8.70;99.90;;;;;;5076066;28;20058;-84
2023/01/02 10:42:14;;;;;;;2.00;1.10;;;8.70;99.90;;;;;;5061124;28;20044;-78
2023/01/02 10:44:43;;;;;;;2.50;1.20;;;8.70;99.90;;;;;;5074478;28;20116;-78
2023/01/02 10:47:19;;;;;;;2.45;1.30;;;8.60;99.90;;;;;;5059467;28;20068;-81
2023/01/02 10:49:46;;;;;;;3.10;1.10;;;8.60;99.90;;;;;;5078075;28;20422;-82
2023/01/02 10:52:38;;;;;;;2.20;1.10;;;8.60;99.90;;;;;;5082092;28;20045;-78
2023/01/02 10:55:04;;;;;;;2.45;1.10;;;8.60;99.90;;;;;;5085290;28;20040;-83
2023/01/02 10:57:43;;;;;;;2.92;1.00;;;8.60;99.90;;;;;;5082823;28;20059;-76
2023/01/02 11:00:18;;;;;;;3.25;1.10;;;8.60;99.90;;;;;;5082075;28;20056;-78
2023/01/02 11:02:50;;;;;;;3.10;1.20;;;8.60;99.90;;;;;;5063002;28;20059;-80
2023/01/02 11:05:28;;;;;;;2.20;1.00;;;8.60;99.90;;;;;;5079159;28;20072;-79
2023/01/02 11:07:55;;;;;;;2.67;1.10;;;8.70;99.90;;;;;;5062743;28;20063;-83
2023/01/02 11:10:22;;;;;;;1.98;0.88;;;8.70;99.90;;;;;;5077962;28;20444;-79
2023/01/02 11:12:48;;;;;;;2.45;0.90;;;8.70;99.90;;;;;;5060735;28;20080;-83
2023/01/02 11:15:23;;;;;;;2.28;0.98;;;8.80;99.90;;;;;;5108137;28;20045;-77
2023/01/02 11:17:49;;;;;;;3.03;1.10;;;8.80;99.90;;;;;;5078098;28;20523;-77
2023/01/02 11:20:30;;;;;;;4.10;1.30;;;8.80;99.90;;;;;;5061461;28;20144;-78
2023/01/02 11:23:00;;;;;;;2.55;1.25;;;8.90;99.90;;;;;;5053828;28;20060;-80
2023/01/02 11:25:31;;;;;;;2.45;1.23;;;8.90;99.90;;;;;;5076758;28;20050;-76
2023/01/02 11:27:59;;;;;;;2.38;1.40;;;8.90;99.90;;;;;;5076917;28;20524;-80
2023/01/02 11:30:33;;;;;;;2.13;1.13;;;8.90;99.90;;;;;;5056343;28;20051;-76
2023/01/02 11:33:13;;;;;;;2.42;1.20;;;8.90;99.90;;;;;;5087335;28;20083;-80
2023/01/02 11:36:01;;;;;;;2.08;1.13;;;8.90;99.90;;;;;;5083877;28;20149;-78
2023/01/02 11:38:40;;;;;;;3.17;1.17;;;8.90;99.90;;;;;;5084020;28;20044;-81
2023/01/02 11:44:15;;;;;;;3.30;1.10;;;9.00;99.90;;;;;;5080806;28;20055;-83
2023/01/02 11:46:41;;;;;;;1.75;1.05;;;8.90;99.90;;;;;;5083970;28;20059;-78
2023/01/02 11:49:21;;;;;;;3.15;1.23;;;9.00;99.90;;;;;;5082455;28;20037;-76
2023/01/02 11:52:10;;;;;;;2.70;1.10;;;9.00;99.90;;;;;;5081421;28;20059;-84
2023/01/02 11:54:45;;;;;;;2.42;1.08;;;9.00;99.90;;;;;;5062158;28;20052;-78
2023/01/02 11:57:46;;;;;;;2.53;1.20;;;9.00;99.90;;;;;;5076794;28;20104;-79
2023/01/02 12:00:14;;;;;;;1.88;0.80;;;9.00;99.90;;;;;;5062765;28;20048;-81
2023/01/02 12:02:49;;;;;;;2.03;0.90;;;8.90;99.90;;;;;;5078768;28;20044;-78
2023/01/02 12:05:24;;;;;;;2.00;1.05;;;8.90;99.90;;;;;;5078192;28;20156;-79
2023/01/02 12:08:00;;;;;;;2.10;0.85;;;8.90;99.90;;;;;;5080242;28;20070;-80
2023/01/02 12:10:49;;;;;;;2.45;0.90;;;8.90;99.90;;;;;;5060114;28;20052;-77
2023/01/02 12:14:08;;;;;;;1.92;1.10;;;8.90;99.90;;;;;;5062579;28;20080;-75
2023/01/02 12:17:05;;;;;;;3.08;1.10;;;8.90;99.90;;;;;;5018599;28;20564;-81
2023/01/02 12:20:04;;;;;;;2.33;1.38;;;9.00;99.90;;;;;;5000558;28;20158;-77
2023/01/02 12:23:18;;;;;;;2.50;1.30;;;9.00;99.90;;;;;;5040885;28;20122;-80
2023/01/02 12:26:39;;;;;;;3.30;1.95;;;9.00;99.90;;;;;;5070999;28;20060;-81
2023/01/02 12:29:20;;;;;;;5.30;1.98;;;8.90;99.90;;;;;;5020731;28;20091;-78
2023/01/02 12:32:04;;;;;;;3.65;2.35;;;8.90;99.90;;;;;;5076624;28;20481;-83
2023/01/02 12:34:54;;;;;;;4.55;2.70;;;8.90;99.90;;;;;;5077862;28;20429;-80
2023/01/02 12:37:57;;;;;;;4.88;2.92;;;8.90;99.90;;;;;;5080047;28;20060;-77
2023/01/02 12:40:32;;;;;;;4.07;2.80;;;8.90;99.90;;;;;;5074813;28;20074;-75
2023/01/02 12:43:11;;;;;;;6.78;3.20;;;8.90;99.90;;;;;;5078791;28;20400;-77
2023/01/02 12:46:09;;;;;;;5.20;2.80;;;8.90;99.90;;;;;;5076941;28;20102;-79
2023/01/02 12:49:03;;;;;;;5.00;2.63;;;8.90;99.90;;;;;;5073380;28;20052;-80
2023/01/02 12:51:31;;;;;;;4.20;2.35;;;8.90;99.90;;;;;;5079193;28;20044;-77
2023/01/02 12:54:41;;;;;;;3.83;2.40;;;8.90;99.90;;;;;;5077020;28;20059;-86
2023/01/02 12:57:18;;;;;;;4.53;1.98;;;8.90;99.90;;;;;;5078153;28;20049;-78
2023/01/02 12:59:58;;;;;;;5.70;2.33;;;8.90;99.90;;;;;;5078873;28;20056;-76
2023/01/02 13:02:46;;;;;;;4.38;2.00;;;8.90;99.90;;;;;;5076733;28;20086;-83
2023/01/02 13:05:17;;;;;;;3.40;1.80;;;8.90;99.90;;;;;;5077215;28;20066;-77
2023/01/02 13:07:49;;;;;;;3.58;1.92;;;8.90;99.90;;;;;;5078147;28;20045;-80
2023/01/02 13:10:19;;;;;;;4.47;1.88;;;8.90;99.90;;;;;;5075096;28;20052;-79
2023/01/02 13:12:46;;;;;;;5.22;1.90;;;8.90;99.90;;;;;;5077612;28;20109;-77
2023/01/02 13:15:24;;;;;;;2.90;1.42;;;8.90;99.90;;;;;;5077375;28;20063;-80
2023/01/02 13:17:57;;;;;;;6.22;1.75;;;9.00;99.90;;;;;;5077550;28;20052;-79
2023/01/02 13:20:37;;;;;;;6.50;2.88;;;8.90;99.90;;;;;;5078001;28;20052;-84
2023/01/02 13:23:31;;;;;;;4.85;1.73;;;9.00;99.90;;;;;;5058914;28;20052;-79